Terminal Aerodrome Forecast
Issued by NWS

Home | Current Version | Previous Version | Text Only | Print | Product List | Glossary On
Versions: 1 2 3 4 5 6 7 8 9 10 11 12 13 14
000
FTUS42 TJSJ 211739
TAFJSJ
TAF
TJSJ 211739Z 2118/2218 07014KT P6SM VCSH SCT028 SCT040
     FM212300 11005KT P6SM FEW030 SCT070
     FM220600 13002KT P6SM FEW025 SCT035
     FM221400 07011KT P6SM SCT040=

USA.gov is the U.S. government's official web portal to all federal, state and local government web resources and services.